sensor_id;sensor_type;location;lat;lon;timestamp;P1;durP1;ratioP1;P2;durP2;ratioP2
57057;SDS011;55017;52.848;6.748;2022-09-09T00:04:43;101.70;;;97.90;;
57057;SDS011;55017;52.848;6.748;2022-09-09T00:07:31;101.88;;;98.00;;
57057;SDS011;55017;52.848;6.748;2022-09-09T00:15:32;102.53;;;98.82;;
57057;SDS011;55017;52.848;6.748;2022-09-09T00:18:03;101.10;;;97.35;;
57057;SDS011;55017;52.848;6.748;2022-09-09T00:20:49;101.57;;;97.68;;
57057;SDS011;55017;52.848;6.748;2022-09-09T00:23:29;101.90;;;98.10;;
57057;SDS011;55017;52.848;6.748;2022-09-09T00:31:37;101.38;;;97.65;;
57057;SDS011;55017;52.848;6.748;2022-09-09T00:36:41;99.88;;;96.07;;
57057;SDS011;55017;52.848;6.748;2022-09-09T00:39:15;101.22;;;97.50;;
57057;SDS011;55017;52.848;6.748;2022-09-09T00:42:10;101.22;;;97.20;;
57057;SDS011;55017;52.848;6.748;2022-09-09T00:45:16;104.75;;;100.85;;
57057;SDS011;55017;52.848;6.748;2022-09-09T00:47:50;101.03;;;97.22;;
57057;SDS011;55017;52.848;6.748;2022-09-09T00:53:05;103.80;;;99.60;;
57057;SDS011;55017;52.848;6.748;2022-09-09T00:55:45;102.45;;;98.43;;
57057;SDS011;55017;52.848;6.748;2022-09-09T00:58:19;104.20;;;100.40;;
57057;SDS011;55017;52.848;6.748;2022-09-09T01:00:57;101.47;;;97.50;;
57057;SDS011;55017;52.848;6.748;2022-09-09T01:06:15;100.20;;;96.43;;
57057;SDS011;55017;52.848;6.748;2022-09-09T01:11:26;104.18;;;100.10;;
57057;SDS011;55017;52.848;6.748;2022-09-09T01:22:56;101.45;;;97.45;;
57057;SDS011;55017;52.848;6.748;2022-09-09T01:27:54;102.75;;;98.60;;
57057;SDS011;55017;52.848;6.748;2022-09-09T01:30:27;101.68;;;97.95;;
57057;SDS011;55017;52.848;6.748;2022-09-09T01:32:55;102.70;;;98.60;;
57057;SDS011;55017;52.848;6.748;2022-09-09T01:37:55;101.10;;;97.22;;
57057;SDS011;55017;52.848;6.748;2022-09-09T01:40:21;101.10;;;97.28;;
57057;SDS011;55017;52.848;6.748;2022-09-09T01:42:48;103.35;;;99.15;;
57057;SDS011;55017;52.848;6.748;2022-09-09T01:45:14;103.03;;;98.90;;
57057;SDS011;55017;52.848;6.748;2022-09-09T01:47:40;102.97;;;98.80;;
57057;SDS011;55017;52.848;6.748;2022-09-09T01:50:06;102.75;;;98.78;;
57057;SDS011;55017;52.848;6.748;2022-09-09T01:52:36;101.78;;;97.78;;
57057;SDS011;55017;52.848;6.748;2022-09-09T01:55:02;99.55;;;95.68;;
57057;SDS011;55017;52.848;6.748;2022-09-09T01:57:31;100.65;;;96.78;;
57057;SDS011;55017;52.848;6.748;2022-09-09T02:00:08;101.07;;;96.97;;
57057;SDS011;55017;52.848;6.748;2022-09-09T02:02:45;99.35;;;95.43;;
57057;SDS011;55017;52.848;6.748;2022-09-09T02:05:27;98.65;;;94.78;;
57057;SDS011;55017;52.848;6.748;2022-09-09T02:08:31;99.85;;;96.05;;
57057;SDS011;55017;52.848;6.748;2022-09-09T02:11:10;100.22;;;96.25;;
57057;SDS011;55017;52.848;6.748;2022-09-09T02:13:38;97.85;;;94.03;;
57057;SDS011;55017;52.848;6.748;2022-09-09T02:16:08;101.40;;;97.50;;
57057;SDS011;55017;52.848;6.748;2022-09-09T02:18:45;100.85;;;96.68;;
57057;SDS011;55017;52.848;6.748;2022-09-09T02:21:43;101.45;;;97.45;;
57057;SDS011;55017;52.848;6.748;2022-09-09T02:24:10;100.25;;;96.47;;
57057;SDS011;55017;52.848;6.748;2022-09-09T02:26:39;101.93;;;97.93;;
57057;SDS011;55017;52.848;6.748;2022-09-09T02:29:30;104.30;;;100.20;;
57057;SDS011;55017;52.848;6.748;2022-09-09T02:31:55;101.88;;;97.88;;
57057;SDS011;55017;52.848;6.748;2022-09-09T02:34:27;105.63;;;100.95;;
57057;SDS011;55017;52.848;6.748;2022-09-09T02:36:55;103.70;;;99.38;;
57057;SDS011;55017;52.848;6.748;2022-09-09T02:39:25;103.05;;;99.03;;
57057;SDS011;55017;52.848;6.748;2022-09-09T02:41:50;106.45;;;102.25;;
57057;SDS011;55017;52.848;6.748;2022-09-09T02:44:17;102.95;;;99.00;;
57057;SDS011;55017;52.848;6.748;2022-09-09T02:49:20;104.78;;;100.65;;
57057;SDS011;55017;52.848;6.748;2022-09-09T02:54:34;105.30;;;101.00;;
57057;SDS011;55017;52.848;6.748;2022-09-09T02:57:14;104.70;;;100.57;;
57057;SDS011;55017;52.848;6.748;2022-09-09T02:59:46;107.22;;;102.97;;
57057;SDS011;55017;52.848;6.748;2022-09-09T03:02:12;104.55;;;100.28;;
57057;SDS011;55017;52.848;6.748;2022-09-09T03:04:38;104.50;;;100.10;;
57057;SDS011;55017;52.848;6.748;2022-09-09T03:07:05;103.20;;;99.20;;
57057;SDS011;55017;52.848;6.748;2022-09-09T03:09:31;105.10;;;101.03;;
57057;SDS011;55017;52.848;6.748;2022-09-09T03:11:57;103.28;;;99.38;;
57057;SDS011;55017;52.848;6.748;2022-09-09T03:14:23;105.38;;;101.35;;
57057;SDS011;55017;52.848;6.748;2022-09-09T03:16:53;106.65;;;102.05;;
57057;SDS011;55017;52.848;6.748;2022-09-09T03:19:19;107.93;;;103.35;;
57057;SDS011;55017;52.848;6.748;2022-09-09T03:21:46;104.35;;;100.25;;
57057;SDS011;55017;52.848;6.748;2022-09-09T03:24:12;101.38;;;97.38;;
57057;SDS011;55017;52.848;6.748;2022-09-09T03:26:39;103.38;;;99.38;;
57057;SDS011;55017;52.848;6.748;2022-09-09T03:29:05;106.00;;;101.88;;
57057;SDS011;55017;52.848;6.748;2022-09-09T03:31:32;102.60;;;98.70;;
57057;SDS011;55017;52.848;6.748;2022-09-09T03:33:58;102.20;;;98.18;;
57057;SDS011;55017;52.848;6.748;2022-09-09T03:36:25;104.75;;;100.55;;
57057;SDS011;55017;52.848;6.748;2022-09-09T03:38:51;105.75;;;101.75;;
57057;SDS011;55017;52.848;6.748;2022-09-09T03:41:17;109.00;;;104.50;;
57057;SDS011;55017;52.848;6.748;2022-09-09T03:43:43;103.85;;;99.85;;
57057;SDS011;55017;52.848;6.748;2022-09-09T03:46:09;104.13;;;100.05;;
57057;SDS011;55017;52.848;6.748;2022-09-09T03:48:35;105.18;;;101.25;;
57057;SDS011;55017;52.848;6.748;2022-09-09T03:51:00;103.80;;;99.97;;
57057;SDS011;55017;52.848;6.748;2022-09-09T03:53:27;100.43;;;96.80;;
57057;SDS011;55017;52.848;6.748;2022-09-09T03:55:54;101.55;;;97.95;;
57057;SDS011;55017;52.848;6.748;2022-09-09T03:58:22;99.00;;;95.40;;
57057;SDS011;55017;52.848;6.748;2022-09-09T04:00:56;101.10;;;97.47;;
57057;SDS011;55017;52.848;6.748;2022-09-09T04:03:23;101.10;;;97.40;;
57057;SDS011;55017;52.848;6.748;2022-09-09T04:05:50;104.10;;;100.40;;
57057;SDS011;55017;52.848;6.748;2022-09-09T04:08:16;101.10;;;97.50;;
57057;SDS011;55017;52.848;6.748;2022-09-09T04:10:47;102.20;;;98.40;;
57057;SDS011;55017;52.848;6.748;2022-09-09T04:13:14;99.88;;;96.05;;
57057;SDS011;55017;52.848;6.748;2022-09-09T04:18:08;102.53;;;98.75;;
57057;SDS011;55017;52.848;6.748;2022-09-09T04:20:34;98.90;;;95.40;;
57057;SDS011;55017;52.848;6.748;2022-09-09T04:23:00;101.20;;;97.40;;
57057;SDS011;55017;52.848;6.748;2022-09-09T04:25:26;102.85;;;99.00;;
57057;SDS011;55017;52.848;6.748;2022-09-09T04:27:55;101.95;;;98.25;;
57057;SDS011;55017;52.848;6.748;2022-09-09T04:30:22;100.50;;;96.65;;
57057;SDS011;55017;52.848;6.748;2022-09-09T04:32:48;102.47;;;98.35;;
57057;SDS011;55017;52.848;6.748;2022-09-09T04:35:14;101.75;;;97.75;;
57057;SDS011;55017;52.848;6.748;2022-09-09T04:37:39;105.70;;;101.60;;
57057;SDS011;55017;52.848;6.748;2022-09-09T04:40:06;102.22;;;98.30;;
57057;SDS011;55017;52.848;6.748;2022-09-09T04:42:37;105.80;;;101.68;;
57057;SDS011;55017;52.848;6.748;2022-09-09T04:45:04;103.35;;;99.45;;
57057;SDS011;55017;52.848;6.748;2022-09-09T04:47:31;102.90;;;98.97;;
57057;SDS011;55017;52.848;6.748;2022-09-09T04:49:57;102.15;;;98.25;;
57057;SDS011;55017;52.848;6.748;2022-09-09T04:52:23;105.20;;;101.10;;
57057;SDS011;55017;52.848;6.748;2022-09-09T04:54:49;103.57;;;99.47;;
57057;SDS011;55017;52.848;6.748;2022-09-09T04:57:14;105.78;;;101.63;;
57057;SDS011;55017;52.848;6.748;2022-09-09T04:59:40;105.05;;;100.68;;
57057;SDS011;55017;52.848;6.748;2022-09-09T05:02:06;107.72;;;103.50;;
57057;SDS011;55017;52.848;6.748;2022-09-09T05:04:31;102.95;;;98.95;;
57057;SDS011;55017;52.848;6.748;2022-09-09T05:06:58;105.00;;;101.00;;
57057;SDS011;55017;52.848;6.748;2022-09-09T05:09:24;103.55;;;99.70;;
57057;SDS011;55017;52.848;6.748;2022-09-09T05:11:50;106.43;;;102.22;;
57057;SDS011;55017;52.848;6.748;2022-09-09T05:14:16;106.82;;;102.68;;
57057;SDS011;55017;52.848;6.748;2022-09-09T05:16:44;108.90;;;104.70;;
57057;SDS011;55017;52.848;6.748;2022-09-09T05:19:10;105.15;;;100.95;;
57057;SDS011;55017;52.848;6.748;2022-09-09T05:21:36;106.28;;;102.07;;
57057;SDS011;55017;52.848;6.748;2022-09-09T05:24:02;105.75;;;101.63;;
57057;SDS011;55017;52.848;6.748;2022-09-09T05:26:28;105.25;;;101.35;;
57057;SDS011;55017;52.848;6.748;2022-09-09T05:28:57;105.43;;;101.38;;
57057;SDS011;55017;52.848;6.748;2022-09-09T05:31:24;104.05;;;100.07;;
57057;SDS011;55017;52.848;6.748;2022-09-09T05:33:53;105.00;;;101.00;;
57057;SDS011;55017;52.848;6.748;2022-09-09T05:36:20;104.10;;;100.15;;
57057;SDS011;55017;52.848;6.748;2022-09-09T05:38:46;103.15;;;99.10;;
57057;SDS011;55017;52.848;6.748;2022-09-09T05:41:13;103.35;;;99.35;;
57057;SDS011;55017;52.848;6.748;2022-09-09T05:43:42;102.68;;;98.78;;
57057;SDS011;55017;52.848;6.748;2022-09-09T05:48:39;103.38;;;99.18;;
57057;SDS011;55017;52.848;6.748;2022-09-09T05:51:08;103.63;;;99.40;;
57057;SDS011;55017;52.848;6.748;2022-09-09T05:53:37;102.05;;;98.13;;
57057;SDS011;55017;52.848;6.748;2022-09-09T05:56:07;101.90;;;98.20;;
57057;SDS011;55017;52.848;6.748;2022-09-09T05:58:36;104.55;;;100.75;;
57057;SDS011;55017;52.848;6.748;2022-09-09T06:01:03;103.55;;;99.50;;
57057;SDS011;55017;52.848;6.748;2022-09-09T06:03:37;101.82;;;98.07;;
57057;SDS011;55017;52.848;6.748;2022-09-09T06:06:05;103.55;;;99.75;;
57057;SDS011;55017;52.848;6.748;2022-09-09T06:08:33;103.60;;;99.80;;
57057;SDS011;55017;52.848;6.748;2022-09-09T06:11:07;101.95;;;98.15;;
57057;SDS011;55017;52.848;6.748;2022-09-09T06:13:35;101.07;;;97.38;;
57057;SDS011;55017;52.848;6.748;2022-09-09T06:16:03;104.95;;;101.07;;
57057;SDS011;55017;52.848;6.748;2022-09-09T06:18:32;102.45;;;98.72;;
57057;SDS011;55017;52.848;6.748;2022-09-09T06:21:01;103.65;;;99.68;;
57057;SDS011;55017;52.848;6.748;2022-09-09T06:23:29;105.28;;;101.47;;
57057;SDS011;55017;52.848;6.748;2022-09-09T06:26:05;104.97;;;101.15;;
57057;SDS011;55017;52.848;6.748;2022-09-09T06:28:36;100.20;;;96.50;;
57057;SDS011;55017;52.848;6.748;2022-09-09T06:31:03;102.85;;;98.85;;
57057;SDS011;55017;52.848;6.748;2022-09-09T06:33:31;103.43;;;99.55;;
57057;SDS011;55017;52.848;6.748;2022-09-09T06:35:59;106.93;;;103.03;;
57057;SDS011;55017;52.848;6.748;2022-09-09T06:38:25;103.13;;;99.40;;
57057;SDS011;55017;52.848;6.748;2022-09-09T06:40:54;103.45;;;99.50;;
57057;SDS011;55017;52.848;6.748;2022-09-09T06:43:21;101.45;;;97.55;;
57057;SDS011;55017;52.848;6.748;2022-09-09T06:45:58;100.45;;;96.72;;
57057;SDS011;55017;52.848;6.748;2022-09-09T06:48:25;102.97;;;99.22;;
57057;SDS011;55017;52.848;6.748;2022-09-09T06:53:32;102.28;;;98.55;;
57057;SDS011;55017;52.848;6.748;2022-09-09T06:56:18;104.00;;;100.22;;
57057;SDS011;55017;52.848;6.748;2022-09-09T06:58:46;103.30;;;99.53;;
57057;SDS011;55017;52.848;6.748;2022-09-09T07:01:35;105.32;;;101.28;;
57057;SDS011;55017;52.848;6.748;2022-09-09T07:04:01;101.05;;;97.35;;
57057;SDS011;55017;52.848;6.748;2022-09-09T07:06:33;104.47;;;100.63;;
57057;SDS011;55017;52.848;6.748;2022-09-09T07:09:00;100.25;;;96.68;;
57057;SDS011;55017;52.848;6.748;2022-09-09T07:11:30;100.97;;;97.30;;
57057;SDS011;55017;52.848;6.748;2022-09-09T07:13:58;100.15;;;96.65;;
57057;SDS011;55017;52.848;6.748;2022-09-09T07:16:24;101.68;;;97.88;;
57057;SDS011;55017;52.848;6.748;2022-09-09T07:18:51;105.43;;;101.43;;
57057;SDS011;55017;52.848;6.748;2022-09-09T07:21:17;100.78;;;97.13;;
57057;SDS011;55017;52.848;6.748;2022-09-09T07:23:44;100.13;;;96.53;;
57057;SDS011;55017;52.848;6.748;2022-09-09T07:26:12;98.20;;;94.50;;
57057;SDS011;55017;52.848;6.748;2022-09-09T07:28:42;100.93;;;97.13;;
57057;SDS011;55017;52.848;6.748;2022-09-09T07:31:15;101.07;;;97.57;;
57057;SDS011;55017;52.848;6.748;2022-09-09T07:33:42;97.20;;;93.70;;
57057;SDS011;55017;52.848;6.748;2022-09-09T07:36:10;97.38;;;94.03;;
57057;SDS011;55017;52.848;6.748;2022-09-09T07:38:44;101.45;;;97.50;;
57057;SDS011;55017;52.848;6.748;2022-09-09T07:41:12;99.75;;;96.05;;
57057;SDS011;55017;52.848;6.748;2022-09-09T07:43:42;97.88;;;94.38;;
57057;SDS011;55017;52.848;6.748;2022-09-09T07:46:09;98.78;;;95.03;;
57057;SDS011;55017;52.848;6.748;2022-09-09T07:48:37;97.93;;;94.23;;
57057;SDS011;55017;52.848;6.748;2022-09-09T07:51:04;99.03;;;95.18;;
57057;SDS011;55017;52.848;6.748;2022-09-09T07:53:31;99.15;;;95.63;;
57057;SDS011;55017;52.848;6.748;2022-09-09T07:56:02;95.95;;;92.55;;
57057;SDS011;55017;52.848;6.748;2022-09-09T07:58:29;96.07;;;92.47;;
57057;SDS011;55017;52.848;6.748;2022-09-09T08:00:54;95.10;;;91.70;;
57057;SDS011;55017;52.848;6.748;2022-09-09T08:03:20;94.45;;;90.88;;
57057;SDS011;55017;52.848;6.748;2022-09-09T08:05:47;95.60;;;92.18;;
57057;SDS011;55017;52.848;6.748;2022-09-09T08:08:12;96.78;;;93.20;;
57057;SDS011;55017;52.848;6.748;2022-09-09T08:10:38;94.22;;;90.82;;
57057;SDS011;55017;52.848;6.748;2022-09-09T08:13:03;96.45;;;92.95;;
57057;SDS011;55017;52.848;6.748;2022-09-09T08:15:30;94.53;;;91.03;;
57057;SDS011;55017;52.848;6.748;2022-09-09T08:17:57;93.82;;;90.35;;
57057;SDS011;55017;52.848;6.748;2022-09-09T08:20:22;96.47;;;92.82;;
57057;SDS011;55017;52.848;6.748;2022-09-09T08:22:48;93.85;;;90.35;;
57057;SDS011;55017;52.848;6.748;2022-09-09T08:25:15;95.70;;;92.05;;
57057;SDS011;55017;52.848;6.748;2022-09-09T08:27:40;95.00;;;90.95;;
57057;SDS011;55017;52.848;6.748;2022-09-09T08:30:06;97.50;;;93.95;;
57057;SDS011;55017;52.848;6.748;2022-09-09T08:32:32;92.70;;;89.43;;
57057;SDS011;55017;52.848;6.748;2022-09-09T08:35:00;95.20;;;91.60;;
57057;SDS011;55017;52.848;6.748;2022-09-09T08:37:25;93.45;;;90.15;;
57057;SDS011;55017;52.848;6.748;2022-09-09T08:39:51;92.40;;;88.93;;
57057;SDS011;55017;52.848;6.748;2022-09-09T08:47:57;95.45;;;92.03;;
57057;SDS011;55017;52.848;6.748;2022-09-09T08:50:54;96.35;;;92.80;;
57057;SDS011;55017;52.848;6.748;2022-09-09T08:53:27;95.15;;;91.38;;
57057;SDS011;55017;52.848;6.748;2022-09-09T08:55:57;95.90;;;92.35;;
57057;SDS011;55017;52.848;6.748;2022-09-09T09:03:47;91.93;;;88.55;;
57057;SDS011;55017;52.848;6.748;2022-09-09T09:14:18;93.53;;;90.03;;
57057;SDS011;55017;52.848;6.748;2022-09-09T09:19:22;92.88;;;89.43;;
57057;SDS011;55017;52.848;6.748;2022-09-09T09:27:33;90.57;;;87.18;;
57057;SDS011;55017;52.848;6.748;2022-09-09T09:30:05;92.57;;;89.13;;
57057;SDS011;55017;52.848;6.748;2022-09-09T09:32:46;90.43;;;87.18;;
57057;SDS011;55017;52.848;6.748;2022-09-09T09:35:31;94.95;;;91.22;;
57057;SDS011;55017;52.848;6.748;2022-09-09T09:37:56;91.45;;;88.07;;
57057;SDS011;55017;52.848;6.748;2022-09-09T09:40:22;93.78;;;90.00;;
57057;SDS011;55017;52.848;6.748;2022-09-09T09:42:49;91.85;;;88.63;;
57057;SDS011;55017;52.848;6.748;2022-09-09T09:48:01;92.75;;;89.03;;
57057;SDS011;55017;52.848;6.748;2022-09-09T09:50:31;94.13;;;90.38;;
57057;SDS011;55017;52.848;6.748;2022-09-09T09:52:59;93.72;;;90.15;;
57057;SDS011;55017;52.848;6.748;2022-09-09T09:55:29;91.60;;;88.10;;
57057;SDS011;55017;52.848;6.748;2022-09-09T09:58:06;90.20;;;86.85;;
57057;SDS011;55017;52.848;6.748;2022-09-09T10:00:47;92.50;;;88.97;;
57057;SDS011;55017;52.848;6.748;2022-09-09T10:03:21;90.15;;;86.53;;
57057;SDS011;55017;52.848;6.748;2022-09-09T10:05:54;88.35;;;84.95;;
57057;SDS011;55017;52.848;6.748;2022-09-09T10:08:21;88.35;;;84.88;;
57057;SDS011;55017;52.848;6.748;2022-09-09T10:18:38;91.27;;;87.80;;
57057;SDS011;55017;52.848;6.748;2022-09-09T10:21:16;90.57;;;86.97;;
57057;SDS011;55017;52.848;6.748;2022-09-09T10:37:37;89.88;;;86.57;;
57057;SDS011;55017;52.848;6.748;2022-09-09T10:45:49;89.30;;;86.07;;
57057;SDS011;55017;52.848;6.748;2022-09-09T10:49:14;91.18;;;87.70;;
57057;SDS011;55017;52.848;6.748;2022-09-09T10:57:17;90.50;;;86.90;;
57057;SDS011;55017;52.848;6.748;2022-09-09T10:59:47;88.72;;;85.53;;
57057;SDS011;55017;52.848;6.748;2022-09-09T11:02:27;89.82;;;86.40;;
57057;SDS011;55017;52.848;6.748;2022-09-09T11:05:04;90.03;;;86.85;;
57057;SDS011;55017;52.848;6.748;2022-09-09T11:07:55;89.05;;;85.85;;
57057;SDS011;55017;52.848;6.748;2022-09-09T11:10:28;89.70;;;86.53;;
57057;SDS011;55017;52.848;6.748;2022-09-09T11:13:05;91.72;;;88.32;;
57057;SDS011;55017;52.848;6.748;2022-09-09T11:15:46;89.28;;;86.07;;
57057;SDS011;55017;52.848;6.748;2022-09-09T11:18:19;89.03;;;85.63;;
57057;SDS011;55017;52.848;6.748;2022-09-09T11:20:50;89.85;;;86.72;;
57057;SDS011;55017;52.848;6.748;2022-09-09T11:23:22;87.55;;;84.35;;
57057;SDS011;55017;52.848;6.748;2022-09-09T11:25:55;88.45;;;85.35;;
57057;SDS011;55017;52.848;6.748;2022-09-09T11:28:43;89.88;;;86.78;;
57057;SDS011;55017;52.848;6.748;2022-09-09T11:31:21;87.45;;;84.15;;
57057;SDS011;55017;52.848;6.748;2022-09-09T11:34:17;87.13;;;84.03;;
57057;SDS011;55017;52.848;6.748;2022-09-09T11:42:05;87.18;;;83.90;;
57057;SDS011;55017;52.848;6.748;2022-09-09T11:44:43;87.05;;;83.53;;
57057;SDS011;55017;52.848;6.748;2022-09-09T11:47:16;85.43;;;82.32;;
57057;SDS011;55017;52.848;6.748;2022-09-09T11:49:47;86.57;;;83.47;;
57057;SDS011;55017;52.848;6.748;2022-09-09T11:52:23;87.75;;;84.65;;
57057;SDS011;55017;52.848;6.748;2022-09-09T11:55:00;85.28;;;82.28;;
57057;SDS011;55017;52.848;6.748;2022-09-09T11:57:36;87.20;;;84.20;;
57057;SDS011;55017;52.848;6.748;2022-09-09T12:00:03;85.68;;;82.78;;
57057;SDS011;55017;52.848;6.748;2022-09-09T12:02:30;86.97;;;83.87;;
57057;SDS011;55017;52.848;6.748;2022-09-09T12:07:38;87.22;;;84.20;;
57057;SDS011;55017;52.848;6.748;2022-09-09T12:12:36;85.25;;;82.15;;
57057;SDS011;55017;52.848;6.748;2022-09-09T12:17:36;86.90;;;83.70;;
57057;SDS011;55017;52.848;6.748;2022-09-09T12:25:35;85.40;;;81.43;;
57057;SDS011;55017;52.848;6.748;2022-09-09T12:28:36;84.78;;;81.65;;
57057;SDS011;55017;52.848;6.748;2022-09-09T12:31:25;84.93;;;81.82;;
57057;SDS011;55017;52.848;6.748;2022-09-09T12:34:13;84.70;;;81.55;;
57057;SDS011;55017;52.848;6.748;2022-09-09T12:36:43;84.40;;;81.35;;
57057;SDS011;55017;52.848;6.748;2022-09-09T12:39:55;84.90;;;81.70;;
57057;SDS011;55017;52.848;6.748;2022-09-09T12:42:16;84.53;;;81.55;;
57057;SDS011;55017;52.848;6.748;2022-09-09T12:44:58;85.30;;;82.30;;
57057;SDS011;55017;52.848;6.748;2022-09-09T12:47:28;84.95;;;81.95;;
57057;SDS011;55017;52.848;6.748;2022-09-09T12:50:02;85.97;;;82.97;;
57057;SDS011;55017;52.848;6.748;2022-09-09T12:52:32;84.72;;;81.82;;
57057;SDS011;55017;52.848;6.748;2022-09-09T12:55:01;86.63;;;83.47;;
57057;SDS011;55017;52.848;6.748;2022-09-09T12:57:31;87.40;;;84.10;;
57057;SDS011;55017;52.848;6.748;2022-09-09T13:00:17;85.93;;;82.90;;
57057;SDS011;55017;52.848;6.748;2022-09-09T13:02:55;84.80;;;81.78;;
57057;SDS011;55017;52.848;6.748;2022-09-09T13:05:26;87.07;;;83.65;;
57057;SDS011;55017;52.848;6.748;2022-09-09T13:08:01;85.50;;;82.50;;
57057;SDS011;55017;52.848;6.748;2022-09-09T13:10:35;87.18;;;83.95;;
57057;SDS011;55017;52.848;6.748;2022-09-09T13:13:14;88.20;;;85.28;;
57057;SDS011;55017;52.848;6.748;2022-09-09T13:15:48;87.90;;;84.90;;
57057;SDS011;55017;52.848;6.748;2022-09-09T13:18:19;87.25;;;84.00;;
57057;SDS011;55017;52.848;6.748;2022-09-09T13:20:48;87.38;;;84.28;;
57057;SDS011;55017;52.848;6.748;2022-09-09T13:23:15;86.75;;;83.68;;
57057;SDS011;55017;52.848;6.748;2022-09-09T13:25:58;87.63;;;84.50;;
57057;SDS011;55017;52.848;6.748;2022-09-09T13:28:27;86.88;;;83.75;;
57057;SDS011;55017;52.848;6.748;2022-09-09T13:33:34;86.97;;;83.97;;
57057;SDS011;55017;52.848;6.748;2022-09-09T13:36:07;84.75;;;81.70;;
57057;SDS011;55017;52.848;6.748;2022-09-09T13:41:19;82.40;;;79.70;;
57057;SDS011;55017;52.848;6.748;2022-09-09T13:43:50;82.90;;;79.88;;
57057;SDS011;55017;52.848;6.748;2022-09-09T13:46:58;82.50;;;79.70;;
57057;SDS011;55017;52.848;6.748;2022-09-09T13:51:39;81.60;;;78.53;;
57057;SDS011;55017;52.848;6.748;2022-09-09T13:54:10;82.45;;;79.13;;
57057;SDS011;55017;52.848;6.748;2022-09-09T13:56:37;82.28;;;79.38;;
57057;SDS011;55017;52.848;6.748;2022-09-09T13:59:06;83.28;;;80.32;;
57057;SDS011;55017;52.848;6.748;2022-09-09T14:01:36;83.03;;;80.13;;
57057;SDS011;55017;52.848;6.748;2022-09-09T14:04:02;84.72;;;81.53;;
57057;SDS011;55017;52.848;6.748;2022-09-09T14:06:28;83.22;;;80.28;;
57057;SDS011;55017;52.848;6.748;2022-09-09T14:08:54;83.40;;;80.60;;
57057;SDS011;55017;52.848;6.748;2022-09-09T14:11:20;83.28;;;80.43;;
57057;SDS011;55017;52.848;6.748;2022-09-09T14:13:46;83.63;;;80.72;;
57057;SDS011;55017;52.848;6.748;2022-09-09T14:18:41;84.30;;;81.40;;
57057;SDS011;55017;52.848;6.748;2022-09-09T14:21:07;84.47;;;81.50;;
57057;SDS011;55017;52.848;6.748;2022-09-09T14:23:33;84.07;;;81.28;;
57057;SDS011;55017;52.848;6.748;2022-09-09T14:25:59;83.07;;;80.25;;
57057;SDS011;55017;52.848;6.748;2022-09-09T14:28:24;84.70;;;81.53;;
57057;SDS011;55017;52.848;6.748;2022-09-09T14:30:50;84.00;;;81.15;;
57057;SDS011;55017;52.848;6.748;2022-09-09T14:33:16;84.78;;;81.72;;
57057;SDS011;55017;52.848;6.748;2022-09-09T14:35:42;87.43;;;84.22;;
57057;SDS011;55017;52.848;6.748;2022-09-09T14:38:08;84.70;;;81.80;;
57057;SDS011;55017;52.848;6.748;2022-09-09T14:40:34;84.88;;;82.00;;
57057;SDS011;55017;52.848;6.748;2022-09-09T14:43:01;85.25;;;82.35;;
57057;SDS011;55017;52.848;6.748;2022-09-09T14:45:27;86.90;;;83.60;;
57057;SDS011;55017;52.848;6.748;2022-09-09T14:47:53;86.50;;;83.50;;
57057;SDS011;55017;52.848;6.748;2022-09-09T14:50:19;86.45;;;83.50;;
57057;SDS011;55017;52.848;6.748;2022-09-09T14:52:45;85.32;;;82.32;;
57057;SDS011;55017;52.848;6.748;2022-09-09T14:55:11;85.47;;;82.68;;
57057;SDS011;55017;52.848;6.748;2022-09-09T14:57:37;86.15;;;83.18;;
57057;SDS011;55017;52.848;6.748;2022-09-09T15:00:04;86.65;;;83.85;;
57057;SDS011;55017;52.848;6.748;2022-09-09T15:02:31;85.07;;;82.28;;
57057;SDS011;55017;52.848;6.748;2022-09-09T15:04:57;85.05;;;82.15;;
57057;SDS011;55017;52.848;6.748;2022-09-09T15:07:24;83.82;;;81.03;;
57057;SDS011;55017;52.848;6.748;2022-09-09T15:09:50;85.35;;;82.45;;
57057;SDS011;55017;52.848;6.748;2022-09-09T15:12:16;84.65;;;81.82;;
57057;SDS011;55017;52.848;6.748;2022-09-09T15:14:43;85.47;;;82.53;;
57057;SDS011;55017;52.848;6.748;2022-09-09T15:17:10;88.75;;;85.85;;
57057;SDS011;55017;52.848;6.748;2022-09-09T15:19:36;86.35;;;83.45;;
57057;SDS011;55017;52.848;6.748;2022-09-09T15:22:02;85.50;;;82.50;;
57057;SDS011;55017;52.848;6.748;2022-09-09T15:24:30;88.68;;;85.57;;
57057;SDS011;55017;52.848;6.748;2022-09-09T15:26:56;85.93;;;83.03;;
57057;SDS011;55017;52.848;6.748;2022-09-09T15:29:22;86.30;;;83.40;;
57057;SDS011;55017;52.848;6.748;2022-09-09T15:31:48;87.35;;;84.45;;
57057;SDS011;55017;52.848;6.748;2022-09-09T15:34:14;85.63;;;82.72;;
57057;SDS011;55017;52.848;6.748;2022-09-09T15:36:40;86.00;;;82.97;;
57057;SDS011;55017;52.848;6.748;2022-09-09T15:39:08;88.03;;;85.13;;
57057;SDS011;55017;52.848;6.748;2022-09-09T15:41:37;88.95;;;85.85;;
57057;SDS011;55017;52.848;6.748;2022-09-09T15:44:04;86.22;;;83.28;;
57057;SDS011;55017;52.848;6.748;2022-09-09T15:46:31;86.38;;;83.32;;
57057;SDS011;55017;52.848;6.748;2022-09-09T15:49:03;90.28;;;87.07;;
57057;SDS011;55017;52.848;6.748;2022-09-09T15:53:56;86.70;;;83.80;;
57057;SDS011;55017;52.848;6.748;2022-09-09T15:56:23;86.22;;;83.43;;
57057;SDS011;55017;52.848;6.748;2022-09-09T15:58:50;86.85;;;83.85;;
57057;SDS011;55017;52.848;6.748;2022-09-09T16:01:17;88.10;;;85.07;;
57057;SDS011;55017;52.848;6.748;2022-09-09T16:03:44;87.28;;;84.22;;
57057;SDS011;55017;52.848;6.748;2022-09-09T16:06:11;91.27;;;88.17;;
57057;SDS011;55017;52.848;6.748;2022-09-09T16:08:42;84.75;;;81.80;;
57057;SDS011;55017;52.848;6.748;2022-09-09T16:11:13;89.05;;;86.05;;
57057;SDS011;55017;52.848;6.748;2022-09-09T16:13:42;86.18;;;83.18;;
57057;SDS011;55017;52.848;6.748;2022-09-09T16:16:10;89.88;;;86.68;;
57057;SDS011;55017;52.848;6.748;2022-09-09T16:18:38;87.30;;;84.22;;
57057;SDS011;55017;52.848;6.748;2022-09-09T16:21:06;88.55;;;85.45;;
57057;SDS011;55017;52.848;6.748;2022-09-09T16:23:33;87.35;;;84.35;;
57057;SDS011;55017;52.848;6.748;2022-09-09T16:26:01;88.63;;;85.47;;
57057;SDS011;55017;52.848;6.748;2022-09-09T16:28:28;87.38;;;84.30;;
57057;SDS011;55017;52.848;6.748;2022-09-09T16:30:54;88.93;;;85.88;;
57057;SDS011;55017;52.848;6.748;2022-09-09T16:33:20;88.03;;;84.95;;
57057;SDS011;55017;52.848;6.748;2022-09-09T16:35:46;88.30;;;85.30;;
57057;SDS011;55017;52.848;6.748;2022-09-09T16:38:11;87.70;;;84.78;;
57057;SDS011;55017;52.848;6.748;2022-09-09T16:40:37;89.10;;;86.00;;
57057;SDS011;55017;52.848;6.748;2022-09-09T16:43:03;87.03;;;84.03;;
57057;SDS011;55017;52.848;6.748;2022-09-09T16:45:30;88.47;;;85.32;;
57057;SDS011;55017;52.848;6.748;2022-09-09T16:47:57;87.28;;;84.28;;
57057;SDS011;55017;52.848;6.748;2022-09-09T16:50:23;88.60;;;85.70;;
57057;SDS011;55017;52.848;6.748;2022-09-09T16:52:50;88.85;;;85.72;;
57057;SDS011;55017;52.848;6.748;2022-09-09T16:55:16;88.35;;;85.15;;
57057;SDS011;55017;52.848;6.748;2022-09-09T16:57:43;91.03;;;87.82;;